createdAt,value
2018-05-31T00:01:21.009Z,29.70
2018-05-31T00:04:23.538Z,30.70
2018-05-31T00:07:26.103Z,29.73
2018-05-31T00:10:28.591Z,35.50
2018-05-31T00:13:31.197Z,26.57
2018-05-31T00:16:33.767Z,24.90
2018-05-31T00:19:36.290Z,35.47
2018-05-31T00:22:38.799Z,35.17
2018-05-31T00:25:41.271Z,37.63
2018-05-31T00:28:43.789Z,48.20
2018-05-31T00:31:46.284Z,42.67
2018-05-31T00:34:48.776Z,40.33
2018-05-31T00:37:51.227Z,48.57
2018-05-31T00:40:53.752Z,45.77
2018-05-31T00:43:56.240Z,42.47
2018-05-31T00:46:58.743Z,40.07
2018-05-31T00:50:01.195Z,44.67
2018-05-31T00:53:03.738Z,42.87
2018-05-31T00:56:17.235Z,44.83
2018-05-31T00:59:19.724Z,51.30
2018-05-31T01:02:22.201Z,49.80
2018-05-31T01:05:24.690Z,53.07
2018-05-31T01:08:27.189Z,48.97
2018-05-31T01:11:29.704Z,55.20
2018-05-31T01:14:32.208Z,52.23
2018-05-31T01:17:34.713Z,63.20
2018-05-31T01:20:37.222Z,66.60
2018-05-31T01:23:39.760Z,63.67
2018-05-31T01:26:42.312Z,73.40
2018-05-31T01:29:44.829Z,77.17
2018-05-31T01:32:47.367Z,65.20
2018-05-31T01:35:49.883Z,70.53
2018-05-31T01:38:52.421Z,77.77
2018-05-31T01:41:54.938Z,74.50
2018-05-31T01:44:57.384Z,70.83
2018-05-31T01:47:59.879Z,73.57
2018-05-31T01:51:02.385Z,78.97
2018-05-31T01:54:04.871Z,67.20
2018-05-31T01:57:07.403Z,83.87
2018-05-31T02:00:09.870Z,73.43
2018-05-31T02:03:12.373Z,74.50
2018-05-31T02:06:14.877Z,74.10
2018-05-31T02:09:17.354Z,79.73
2018-05-31T02:12:19.915Z,70.53
2018-05-31T02:15:22.424Z,80.53
2018-05-31T02:18:24.865Z,79.43
2018-05-31T02:21:27.528Z,66.77
2018-05-31T02:24:30.039Z,65.20
2018-05-31T02:27:32.538Z,68.43
2018-05-31T02:30:35.059Z,76.63
2018-05-31T02:33:37.569Z,82.50
2018-05-31T02:36:40.071Z,89.23
2018-05-31T02:39:42.539Z,72.37
2018-05-31T02:42:45.045Z,42.90
2018-05-31T02:45:47.512Z,28.90
2018-05-31T02:48:49.993Z,27.27
2018-05-31T02:51:52.425Z,24.53
2018-05-31T02:54:54.990Z,32.07
2018-05-31T02:57:57.490Z,33.60
2018-05-31T03:00:59.950Z,37.70
2018-05-31T03:04:02.481Z,38.07
2018-05-31T03:07:04.946Z,38.17
2018-05-31T03:10:07.462Z,36.87
2018-05-31T03:13:09.915Z,25.77
2018-05-31T03:16:12.423Z,32.80
2018-05-31T03:19:14.900Z,36.27
2018-05-31T03:22:17.455Z,37.50
2018-05-31T03:25:20.021Z,31.20
2018-05-31T03:28:22.520Z,43.30
2018-05-31T03:31:25.035Z,46.60
2018-05-31T03:34:27.528Z,42.10
2018-05-31T03:37:30.073Z,34.93
2018-05-31T03:40:32.547Z,32.73
2018-05-31T03:43:35.084Z,40.00
2018-05-31T03:46:37.644Z,35.30
2018-05-31T03:49:40.100Z,36.73
2018-05-31T03:52:42.601Z,27.53
2018-05-31T03:55:45.084Z,26.43
2018-05-31T03:58:47.589Z,30.73
2018-05-31T04:01:50.081Z,33.03
2018-05-31T04:04:52.574Z,30.53
2018-05-31T04:07:55.034Z,34.20
2018-05-31T04:10:58.411Z,34.73
2018-05-31T04:14:00.931Z,30.50
2018-05-31T04:17:03.479Z,33.97
2018-05-31T04:20:05.985Z,38.30
2018-05-31T04:23:08.465Z,32.50
2018-05-31T04:26:10.975Z,33.57
2018-05-31T04:29:13.420Z,45.37
2018-05-31T04:32:15.913Z,39.00
2018-05-31T04:35:18.470Z,38.17
2018-05-31T04:38:21.000Z,44.43
2018-05-31T04:41:23.499Z,35.90
2018-05-31T04:44:26.021Z,40.03
2018-05-31T04:47:28.687Z,35.23
2018-05-31T04:50:31.195Z,31.33
2018-05-31T04:53:33.744Z,31.80
2018-05-31T04:56:36.319Z,32.63
2018-05-31T04:59:38.842Z,34.73
2018-05-31T05:02:41.311Z,31.13
2018-05-31T05:05:43.843Z,33.03
2018-05-31T05:08:46.317Z,30.00
2018-05-31T05:11:48.846Z,30.63
2018-05-31T05:14:51.399Z,32.70
2018-05-31T05:17:53.924Z,31.13
2018-05-31T05:20:56.447Z,30.80
2018-05-31T05:23:58.965Z,31.37
2018-05-31T05:27:01.461Z,28.73
2018-05-31T05:30:03.964Z,27.83
2018-05-31T05:33:06.508Z,30.13
2018-05-31T05:36:09.025Z,29.77
2018-05-31T05:39:11.656Z,29.10
2018-05-31T05:42:14.152Z,27.40
2018-05-31T05:45:16.628Z,28.23
2018-05-31T05:48:19.106Z,26.13
2018-05-31T05:51:21.621Z,27.33
2018-05-31T05:54:24.136Z,27.93
2018-05-31T05:57:26.622Z,25.23
2018-05-31T06:00:29.286Z,27.23
2018-05-31T06:03:31.770Z,25.37
2018-05-31T06:06:34.262Z,26.23
2018-05-31T06:09:36.840Z,26.73
2018-05-31T06:12:39.301Z,28.83
2018-05-31T06:15:41.884Z,27.30
2018-05-31T06:18:44.385Z,25.77
2018-05-31T06:21:46.898Z,25.03
2018-05-31T06:24:49.385Z,29.17
2018-05-31T06:27:51.839Z,27.57
2018-05-31T06:30:54.337Z,28.13
2018-05-31T06:33:56.791Z,29.30
2018-05-31T06:36:59.292Z,27.63
2018-05-31T06:40:01.853Z,29.17
2018-05-31T06:43:04.452Z,23.13
2018-05-31T06:46:06.931Z,20.47
2018-05-31T06:49:09.436Z,21.20
2018-05-31T06:52:11.918Z,18.50
2018-05-31T06:55:14.504Z,17.30
2018-05-31T06:58:17.056Z,19.13
2018-05-31T07:01:19.592Z,21.80
2018-05-31T07:04:23.311Z,17.40
2018-05-31T07:07:25.793Z,18.83
2018-05-31T07:10:28.266Z,17.50
2018-05-31T07:13:30.781Z,18.50
2018-05-31T07:16:33.235Z,19.93
2018-05-31T07:19:35.841Z,17.07
2018-05-31T07:22:38.310Z,19.00
2018-05-31T07:25:40.782Z,19.30
2018-05-31T07:28:43.238Z,18.57
2018-05-31T07:31:45.747Z,17.30
2018-05-31T07:34:48.207Z,18.80
2018-05-31T07:37:50.792Z,18.33
2018-05-31T07:40:53.272Z,16.70
2018-05-31T07:43:55.767Z,15.60
2018-05-31T07:46:58.337Z,17.43
2018-05-31T07:50:00.834Z,15.37
2018-05-31T07:53:03.710Z,23.43
2018-05-31T07:56:06.160Z,19.17
2018-05-31T07:59:08.753Z,18.87
2018-05-31T08:02:11.216Z,16.90
2018-05-31T08:05:13.788Z,20.23
2018-05-31T08:08:16.307Z,18.27
2018-05-31T08:11:18.870Z,17.43
2018-05-31T08:14:21.328Z,19.10
2018-05-31T08:17:23.843Z,16.40
2018-05-31T08:20:26.372Z,21.20
2018-05-31T08:23:28.844Z,16.10
2018-05-31T08:26:31.377Z,14.43
2018-05-31T08:29:33.937Z,15.47
2018-05-31T08:32:36.569Z,19.63
2018-05-31T08:35:39.062Z,17.87
2018-05-31T08:38:41.544Z,16.33
2018-05-31T08:41:44.062Z,17.40
2018-05-31T08:44:46.607Z,19.73
2018-05-31T08:47:49.133Z,17.73
2018-05-31T08:50:51.627Z,17.83
2018-05-31T08:53:54.117Z,20.50
2018-05-31T08:56:56.615Z,15.63
2018-05-31T08:59:59.152Z,16.50
2018-05-31T09:03:01.713Z,14.50
2018-05-31T09:06:04.207Z,15.90
2018-05-31T09:09:06.685Z,16.77
2018-05-31T09:12:09.181Z,17.83
2018-05-31T09:15:11.728Z,20.67
2018-05-31T09:18:14.249Z,15.53
2018-05-31T09:21:16.816Z,17.57
2018-05-31T09:24:19.413Z,15.63
2018-05-31T09:27:22.000Z,20.60
2018-05-31T09:30:24.574Z,15.43
2018-05-31T09:33:27.063Z,16.40
2018-05-31T09:36:29.547Z,16.90
2018-05-31T09:39:31.979Z,15.60
2018-05-31T09:42:34.500Z,16.90
2018-05-31T09:45:36.990Z,14.73
2018-05-31T09:48:39.575Z,16.70
2018-05-31T09:51:42.052Z,15.90
2018-05-31T09:54:44.532Z,15.77
2018-05-31T09:57:47.068Z,17.00
2018-05-31T10:00:49.600Z,14.33
2018-05-31T10:03:52.207Z,14.90
2018-05-31T10:06:54.734Z,20.70
2018-05-31T10:09:57.214Z,14.80
2018-05-31T10:12:59.704Z,15.90
2018-05-31T10:16:02.240Z,16.60
2018-05-31T10:19:04.698Z,15.00
2018-05-31T10:22:07.259Z,15.23
2018-05-31T10:25:09.793Z,17.30
2018-05-31T10:28:12.353Z,14.40
2018-05-31T10:31:14.886Z,18.23
2018-05-31T10:34:17.475Z,16.37
2018-05-31T10:37:19.943Z,14.30
2018-05-31T10:40:22.474Z,19.40
2018-05-31T10:43:24.995Z,15.97
2018-05-31T10:46:27.563Z,15.67
2018-05-31T10:49:30.062Z,16.73
2018-05-31T10:52:32.524Z,16.47
2018-05-31T10:55:35.105Z,17.20
2018-05-31T10:58:37.598Z,15.73
2018-05-31T11:01:40.131Z,19.40
2018-05-31T11:04:42.726Z,21.93
2018-05-31T11:07:45.258Z,23.03
2018-05-31T11:10:47.780Z,19.23
2018-05-31T11:13:50.702Z,19.63
2018-05-31T11:16:53.196Z,21.03
2018-05-31T11:19:55.781Z,24.63
2018-05-31T11:22:58.236Z,20.17
2018-05-31T11:26:00.759Z,22.03
2018-05-31T11:29:03.249Z,16.03
2018-05-31T11:32:05.779Z,17.07
2018-05-31T11:35:08.259Z,16.83
2018-05-31T11:38:10.736Z,15.93
2018-05-31T11:41:13.216Z,17.27
2018-05-31T11:44:15.806Z,15.97
2018-05-31T11:47:18.346Z,16.47
2018-05-31T11:50:20.824Z,17.37
2018-05-31T11:53:23.395Z,16.63
2018-05-31T11:56:25.917Z,15.20
2018-05-31T11:59:28.541Z,14.43
2018-05-31T12:02:31.079Z,14.80
2018-05-31T12:05:33.557Z,13.53
2018-05-31T12:08:36.090Z,15.20
2018-05-31T12:11:38.550Z,13.20
2018-05-31T12:14:41.051Z,13.87
2018-05-31T12:17:43.586Z,19.03
2018-05-31T12:20:46.121Z,13.30
2018-05-31T12:23:48.613Z,13.50
2018-05-31T12:26:51.179Z,13.30
2018-05-31T12:29:53.699Z,13.33
2018-05-31T12:32:56.196Z,14.10
2018-05-31T12:35:58.711Z,14.93
2018-05-31T12:39:01.226Z,14.50
2018-05-31T12:42:03.777Z,12.33
2018-05-31T12:45:06.275Z,14.63
2018-05-31T12:48:08.781Z,10.57
2018-05-31T12:51:11.320Z,13.63
2018-05-31T12:54:13.825Z,11.27
2018-05-31T12:57:16.304Z,11.43
2018-05-31T13:00:18.774Z,17.20
2018-05-31T13:03:21.276Z,11.50
2018-05-31T13:06:23.766Z,12.73
2018-05-31T13:09:26.638Z,11.10
2018-05-31T13:12:29.115Z,11.87
2018-05-31T13:15:31.612Z,13.17
2018-05-31T13:18:34.066Z,12.53
2018-05-31T13:21:36.661Z,10.63
2018-05-31T13:24:39.255Z,12.53
2018-05-31T13:27:41.740Z,11.70
2018-05-31T13:30:44.301Z,13.40
2018-05-31T13:33:46.760Z,10.30
2018-05-31T13:36:49.283Z,15.60
2018-05-31T13:39:51.742Z,11.37
2018-05-31T13:42:56.165Z,10.40
2018-05-31T13:45:58.671Z,13.07
2018-05-31T13:49:01.282Z,11.83
2018-05-31T13:52:03.865Z,10.00
2018-05-31T13:55:06.402Z,10.27
2018-05-31T13:58:08.920Z,9.80
2018-05-31T14:01:11.430Z,10.70
2018-05-31T14:04:13.888Z,9.90
2018-05-31T14:07:16.482Z,10.10
2018-05-31T14:10:18.977Z,10.67
2018-05-31T14:13:21.542Z,10.77
2018-05-31T14:16:24.059Z,10.30
2018-05-31T14:19:26.546Z,12.33
2018-05-31T14:22:29.093Z,10.63
2018-05-31T14:25:31.611Z,13.13
2018-05-31T14:28:34.101Z,12.10
2018-05-31T14:31:36.655Z,10.80
2018-05-31T14:34:44.452Z,12.37
2018-05-31T14:37:48.447Z,13.20
2018-05-31T14:40:50.922Z,11.13
2018-05-31T14:43:53.552Z,12.47
2018-05-31T14:46:56.032Z,10.27
2018-05-31T14:49:58.614Z,11.00
2018-05-31T14:53:01.052Z,10.70
2018-05-31T14:56:03.556Z,11.67
2018-05-31T14:59:06.142Z,11.30
2018-05-31T15:02:08.668Z,15.53
2018-05-31T15:05:11.207Z,11.30
2018-05-31T15:08:13.703Z,11.60
2018-05-31T15:11:16.214Z,10.60
2018-05-31T15:14:18.697Z,10.97
2018-05-31T15:17:21.312Z,15.33
2018-05-31T15:20:23.831Z,10.60
2018-05-31T15:23:26.326Z,12.30
2018-05-31T15:26:29.828Z,11.23
2018-05-31T15:29:32.296Z,11.67
2018-05-31T15:32:34.847Z,12.17
2018-05-31T15:35:37.326Z,12.40
2018-05-31T15:38:39.908Z,12.23
2018-05-31T15:41:42.394Z,14.10
2018-05-31T15:44:44.920Z,11.77
2018-05-31T15:47:47.443Z,11.50
2018-05-31T15:50:49.969Z,13.47
2018-05-31T15:53:52.476Z,12.23
2018-05-31T15:56:55.030Z,11.77
2018-05-31T15:59:57.554Z,11.50
2018-05-31T16:03:00.091Z,11.67
2018-05-31T16:06:02.606Z,12.03
2018-05-31T16:09:05.973Z,13.40
2018-05-31T16:12:08.476Z,15.37
2018-05-31T16:15:11.027Z,13.03
2018-05-31T16:18:13.661Z,12.70
2018-05-31T16:21:16.169Z,12.50
2018-05-31T16:24:18.633Z,13.63
2018-05-31T16:27:21.147Z,13.07
2018-05-31T16:30:23.646Z,13.57
2018-05-31T16:33:26.117Z,14.00
2018-05-31T16:36:28.680Z,13.93
2018-05-31T16:39:31.231Z,14.23
2018-05-31T16:42:33.808Z,14.83
2018-05-31T16:45:36.375Z,14.50
2018-05-31T16:48:38.929Z,14.30
2018-05-31T16:51:41.452Z,15.13
2018-05-31T16:54:43.965Z,14.97
2018-05-31T16:57:46.472Z,14.07
2018-05-31T17:00:48.936Z,13.10
2018-05-31T17:03:51.488Z,15.20
2018-05-31T17:06:53.923Z,14.30
2018-05-31T17:09:56.418Z,15.70
2018-05-31T17:12:58.928Z,14.80
2018-05-31T17:16:01.410Z,14.80
2018-05-31T17:19:03.931Z,17.90
2018-05-31T17:22:06.398Z,13.60
2018-05-31T17:25:08.898Z,13.27
2018-05-31T17:28:11.474Z,15.03
2018-05-31T17:31:13.943Z,13.80
2018-05-31T17:34:16.454Z,12.53
2018-05-31T17:37:18.912Z,13.10
2018-05-31T17:40:21.413Z,12.20
2018-05-31T17:43:23.933Z,15.60
2018-05-31T17:46:26.573Z,23.70
2018-05-31T17:49:29.173Z,17.37
2018-05-31T17:52:31.720Z,25.30
2018-05-31T17:55:34.248Z,19.70
2018-05-31T17:58:36.979Z,17.47
2018-05-31T18:01:39.628Z,20.23
2018-05-31T18:04:42.090Z,22.13
2018-05-31T18:07:44.644Z,16.20
2018-05-31T18:10:47.120Z,21.20
2018-05-31T18:13:49.595Z,15.67
2018-05-31T18:16:52.103Z,17.10
2018-05-31T18:19:54.799Z,17.60
2018-05-31T18:22:57.320Z,16.47
2018-05-31T18:25:59.890Z,16.00
2018-05-31T18:29:02.335Z,14.97
2018-05-31T18:32:04.813Z,18.07
2018-05-31T18:35:07.308Z,14.47
2018-05-31T18:38:09.862Z,18.13
2018-05-31T18:41:12.338Z,19.83
2018-05-31T18:44:14.858Z,18.63
2018-05-31T18:47:17.300Z,17.60
2018-05-31T18:50:19.924Z,17.93
2018-05-31T18:53:22.431Z,15.33
2018-05-31T18:56:24.856Z,16.60
2018-05-31T18:59:27.407Z,15.50
2018-05-31T19:02:29.889Z,18.63
2018-05-31T19:05:32.401Z,16.67
2018-05-31T19:08:34.917Z,17.07
2018-05-31T19:11:37.539Z,14.07
2018-05-31T19:14:40.043Z,15.70
2018-05-31T19:17:42.515Z,18.00
2018-05-31T19:20:44.999Z,16.60
2018-05-31T19:23:47.483Z,16.30
2018-05-31T19:26:50.114Z,14.67
2018-05-31T19:29:52.607Z,19.13
2018-05-31T19:32:55.095Z,20.63
2018-05-31T19:36:03.470Z,20.60
2018-05-31T19:39:05.938Z,18.77
2018-05-31T19:42:14.060Z,18.03
2018-05-31T19:45:16.580Z,18.40
2018-05-31T19:48:19.128Z,15.07
2018-05-31T19:51:27.280Z,17.80
2018-05-31T19:54:29.865Z,16.67
2018-05-31T19:57:32.519Z,17.70
2018-05-31T20:00:40.578Z,23.30
2018-05-31T20:03:43.171Z,23.80
2018-05-31T20:06:45.801Z,16.63
2018-05-31T20:09:48.343Z,17.27
2018-05-31T20:12:50.899Z,14.97
2018-05-31T20:15:53.371Z,17.27
2018-05-31T20:18:55.933Z,16.93
2018-05-31T20:21:58.440Z,20.77
2018-05-31T20:25:00.965Z,18.50
2018-05-31T20:28:03.455Z,22.63
2018-05-31T20:31:05.981Z,18.87
2018-05-31T20:34:08.516Z,21.77
2018-05-31T20:37:11.014Z,20.03
2018-05-31T20:40:13.581Z,25.03
2018-05-31T20:43:16.215Z,21.03
2018-05-31T20:46:18.699Z,21.10
2018-05-31T20:49:21.345Z,24.43
2018-05-31T20:52:23.823Z,24.70
2018-05-31T20:55:26.300Z,20.07
2018-05-31T20:58:28.844Z,25.83
2018-05-31T21:01:31.411Z,28.30
2018-05-31T21:04:33.974Z,22.40
2018-05-31T21:07:36.464Z,21.03
2018-05-31T21:10:39.035Z,23.03
2018-05-31T21:13:41.561Z,19.63
2018-05-31T21:16:44.141Z,20.93
2018-05-31T21:19:46.771Z,22.30
2018-05-31T21:22:49.318Z,21.13
2018-05-31T21:25:51.876Z,22.27
2018-05-31T21:28:54.404Z,22.90
2018-05-31T21:31:56.921Z,24.20
2018-05-31T21:34:59.474Z,23.90
2018-05-31T21:38:02.487Z,24.00
2018-05-31T21:41:04.996Z,22.60
2018-05-31T21:44:07.572Z,27.17
2018-05-31T21:47:10.967Z,26.33
2018-05-31T21:50:13.512Z,22.23
2018-05-31T21:53:16.082Z,28.33
2018-05-31T21:56:18.582Z,21.60
2018-05-31T21:59:21.052Z,28.07
2018-05-31T22:02:24.902Z,25.10
2018-05-31T22:05:27.380Z,26.00
2018-05-31T22:08:29.906Z,24.40
2018-05-31T22:11:32.387Z,26.07
2018-05-31T22:14:34.936Z,28.03
2018-05-31T22:17:37.421Z,26.37
2018-05-31T22:20:39.965Z,30.57
2018-05-31T22:23:42.472Z,21.90
2018-05-31T22:26:44.976Z,22.20
2018-05-31T22:29:47.482Z,25.73
2018-05-31T22:32:49.975Z,21.97
2018-05-31T22:35:52.500Z,28.23
2018-05-31T22:38:54.967Z,24.60
2018-05-31T22:41:57.482Z,23.97
2018-05-31T22:44:59.981Z,26.10
2018-05-31T22:48:02.502Z,30.40
2018-05-31T22:51:05.041Z,30.93
2018-05-31T22:54:07.495Z,24.63
2018-05-31T22:57:10.016Z,21.20
2018-05-31T23:00:12.583Z,20.63
2018-05-31T23:03:15.057Z,22.73
2018-05-31T23:06:17.693Z,22.53
2018-05-31T23:09:20.252Z,24.17
2018-05-31T23:12:22.810Z,22.60
2018-05-31T23:15:25.290Z,23.40
2018-05-31T23:18:27.813Z,23.20
2018-05-31T23:21:30.337Z,24.00
2018-05-31T23:24:32.961Z,23.77
2018-05-31T23:27:35.412Z,25.87
2018-05-31T23:30:37.978Z,27.70
2018-05-31T23:33:40.445Z,26.17
2018-05-31T23:36:42.945Z,31.30
2018-05-31T23:39:45.467Z,27.13
2018-05-31T23:42:48.034Z,28.90
2018-05-31T23:45:50.594Z,30.23
2018-05-31T23:48:53.135Z,24.23
2018-05-31T23:51:55.609Z,26.70
2018-05-31T23:54:58.126Z,23.53
2018-05-31T23:58:00.565Z,22.17
